createdAt,value
2018-11-14T00:04:19.069Z,68.07
2018-11-14T00:09:02.097Z,66.99
2018-11-14T00:13:45.979Z,67.40
2018-11-14T00:18:28.842Z,68.29
2018-11-14T00:23:12.830Z,69.63
2018-11-14T00:27:55.787Z,67.60
2018-11-14T00:32:38.846Z,68.45
2018-11-14T00:37:21.762Z,69.34
2018-11-14T00:42:05.182Z,68.75
2018-11-14T00:46:48.094Z,67.23
2018-11-14T00:51:33.115Z,67.33
2018-11-14T00:56:16.413Z,68.15
2018-11-14T01:00:59.488Z,67.93
2018-11-14T01:05:42.689Z,67.39
2018-11-14T01:10:25.783Z,67.50
2018-11-14T01:15:12.098Z,66.76
2018-11-14T01:19:56.093Z,66.32
2018-11-14T01:24:38.927Z,66.19
2018-11-14T01:29:23.185Z,66.44
2018-11-14T01:34:06.425Z,67.11
2018-11-14T01:38:49.675Z,67.88
2018-11-14T01:43:33.923Z,65.95
2018-11-14T01:48:17.103Z,66.11
2018-11-14T01:53:01.497Z,65.65
2018-11-14T01:57:44.674Z,65.46
2018-11-14T02:02:27.675Z,66.02
2018-11-14T02:07:10.526Z,66.51
2018-11-14T02:11:53.501Z,66.80
2018-11-14T02:16:36.392Z,66.13
2018-11-14T02:21:19.473Z,66.69
2018-11-14T02:26:02.345Z,66.63
2018-11-14T02:30:45.213Z,67.13
2018-11-14T02:35:28.473Z,67.29
2018-11-14T02:40:13.713Z,68.40
2018-11-14T02:44:56.607Z,68.16
2018-11-14T02:49:39.653Z,68.69
2018-11-14T02:54:22.514Z,68.52
2018-11-14T02:59:06.678Z,68.15
2018-11-14T03:03:50.619Z,68.43
2018-11-14T03:08:33.519Z,68.08
2018-11-14T03:13:17.627Z,68.43
2018-11-14T03:18:00.526Z,68.61
2018-11-14T03:22:43.695Z,68.06
2018-11-14T03:27:26.995Z,68.48
2018-11-14T03:32:10.606Z,68.99
2018-11-14T03:36:53.899Z,68.86
2018-11-14T03:41:38.022Z,69.32
2018-11-14T03:46:20.922Z,69.15
2018-11-14T03:51:03.994Z,68.81
2018-11-14T03:55:46.850Z,69.64
2018-11-14T04:00:29.975Z,68.96
2018-11-14T04:05:12.934Z,69.29
2018-11-14T04:09:56.987Z,69.40
2018-11-14T04:14:39.850Z,69.09
2018-11-14T04:19:22.802Z,68.21
2018-11-14T04:24:05.853Z,68.25
2018-11-14T04:28:50.883Z,68.45
2018-11-14T04:33:34.022Z,68.15
2018-11-14T04:38:16.953Z,67.85
2018-11-14T04:43:01.927Z,68.40
2018-11-14T04:47:44.984Z,69.31
2018-11-14T04:52:28.852Z,68.50
2018-11-14T04:57:11.767Z,68.54
2018-11-14T05:01:54.976Z,69.28
2018-11-14T05:06:37.871Z,69.33
2018-11-14T05:11:20.930Z,68.92
2018-11-14T05:16:03.867Z,68.29
2018-11-14T05:20:47.216Z,68.88
2018-11-14T05:25:30.782Z,68.45
2018-11-14T05:30:20.285Z,68.52
2018-11-14T05:35:04.132Z,68.82
2018-11-14T05:39:47.242Z,69.11
2018-11-14T05:44:30.154Z,67.71
2018-11-14T05:49:14.190Z,67.94
2018-11-14T05:53:57.055Z,66.77
2018-11-14T05:58:40.999Z,67.80
2018-11-14T06:03:23.889Z,69.31
2018-11-14T06:08:06.829Z,68.69
2018-11-14T06:12:49.890Z,67.67
2018-11-14T06:17:32.776Z,67.12
2018-11-14T06:22:15.659Z,67.16
2018-11-14T06:26:58.677Z,67.09
2018-11-14T06:31:41.711Z,67.55
2018-11-14T06:36:24.619Z,67.07
2018-11-14T06:41:08.754Z,67.21
2018-11-14T06:45:51.656Z,67.21
2018-11-14T06:50:35.763Z,66.81
2018-11-14T06:55:19.340Z,66.72
2018-11-14T07:00:03.488Z,66.68
2018-11-14T07:04:46.388Z,66.72
2018-11-14T07:09:29.354Z,66.48
2018-11-14T07:14:13.134Z,66.32
2018-11-14T07:18:57.169Z,66.59
2018-11-14T07:23:40.079Z,66.89
2018-11-14T07:30:31.890Z,66.37
2018-11-14T07:35:15.534Z,66.74
2018-11-14T07:39:58.508Z,66.32
2018-11-14T07:44:41.395Z,65.82
2018-11-14T07:49:24.511Z,65.84
2018-11-14T07:54:08.344Z,66.07
2018-11-14T07:58:51.338Z,67.07
2018-11-14T08:03:34.247Z,66.65
2018-11-14T08:08:18.467Z,66.65
2018-11-14T08:13:01.405Z,66.51
2018-11-14T08:17:45.054Z,65.45
2018-11-14T08:22:28.030Z,65.14
2018-11-14T08:27:10.928Z,65.14
2018-11-14T08:31:54.468Z,63.58
2018-11-14T08:36:40.210Z,63.68
2018-11-14T08:41:23.219Z,62.98
2018-11-14T08:46:06.543Z,62.50
2018-11-14T08:50:49.710Z,62.46
2018-11-14T08:55:33.692Z,62.04
2018-11-14T09:00:19.959Z,61.96
2018-11-14T09:05:02.854Z,62.45
2018-11-14T09:09:49.132Z,63.09
2018-11-14T09:14:32.108Z,62.71
2018-11-14T09:19:15.177Z,64.71
2018-11-14T09:23:58.096Z,63.14
2018-11-14T09:28:44.556Z,62.80
2018-11-14T09:33:27.462Z,62.68
2018-11-14T09:38:11.359Z,63.33
2018-11-14T09:42:54.254Z,63.83
2018-11-14T09:47:37.138Z,63.23
2018-11-14T09:52:20.253Z,63.45
2018-11-14T09:57:03.233Z,62.76
2018-11-14T10:01:46.276Z,62.98
2018-11-14T10:06:29.194Z,63.11
2018-11-14T10:11:13.295Z,62.90
2018-11-14T10:15:56.574Z,62.61
2018-11-14T10:20:39.562Z,62.55
2018-11-14T10:25:22.492Z,62.78
2018-11-14T10:30:08.673Z,62.76
2018-11-14T10:34:51.580Z,62.29
2018-11-14T10:39:34.634Z,61.92
2018-11-14T10:44:17.527Z,62.45
2018-11-14T10:49:00.402Z,61.77
2018-11-14T10:53:43.275Z,61.91
2018-11-14T10:58:26.285Z,61.63
2018-11-14T11:03:16.478Z,62.03
2018-11-14T11:08:04.949Z,61.71
2018-11-14T11:12:53.231Z,60.56
2018-11-14T11:17:41.571Z,61.48
2018-11-14T11:22:24.424Z,61.26
2018-11-14T11:27:07.356Z,60.86
2018-11-14T11:31:51.480Z,61.39
2018-11-14T11:36:34.405Z,60.37
2018-11-14T11:41:21.100Z,60.74
2018-11-14T11:46:04.015Z,61.29
2018-11-14T11:50:48.265Z,60.77
2018-11-14T11:55:34.979Z,60.57
2018-11-14T12:00:18.561Z,60.58
2018-11-14T12:05:01.588Z,60.22
2018-11-14T12:09:48.905Z,61.17
2018-11-14T12:14:32.456Z,60.61
2018-11-14T12:19:16.569Z,60.84
2018-11-14T12:24:01.420Z,61.02
2018-11-14T12:28:45.412Z,61.10
2018-11-14T12:33:28.316Z,61.32
2018-11-14T12:38:12.320Z,61.74
2018-11-14T12:42:55.286Z,61.49
2018-11-14T12:47:40.557Z,62.95
2018-11-14T12:52:23.456Z,60.80
2018-11-14T12:57:06.381Z,61.78
2018-11-14T13:01:52.596Z,61.33
2018-11-14T13:06:40.223Z,61.51
2018-11-14T13:11:23.382Z,61.65
2018-11-14T13:16:06.402Z,62.50
2018-11-14T13:20:49.788Z,61.98
2018-11-14T13:25:32.827Z,62.32
2018-11-14T13:30:21.920Z,61.70
2018-11-14T13:35:06.948Z,61.77
2018-11-14T13:39:51.325Z,61.95
2018-11-14T13:44:34.450Z,62.00
2018-11-14T13:49:21.529Z,62.43
2018-11-14T13:54:04.615Z,62.74
2018-11-14T13:58:51.491Z,62.67
2018-11-14T14:03:34.619Z,62.96
2018-11-14T14:08:18.704Z,62.35
2018-11-14T14:13:01.810Z,62.88
2018-11-14T14:17:46.920Z,62.80
2018-11-14T14:22:30.015Z,62.54
2018-11-14T14:27:13.429Z,63.15
2018-11-14T14:31:56.475Z,62.75
2018-11-14T14:36:39.523Z,63.33
2018-11-14T14:41:22.786Z,63.00
2018-11-14T14:46:06.526Z,62.90
2018-11-14T14:50:53.711Z,63.08
2018-11-14T14:55:36.749Z,63.05
2018-11-14T15:00:23.053Z,63.20
2018-11-14T15:05:07.475Z,63.33
2018-11-14T15:09:50.570Z,62.88
2018-11-14T15:14:33.825Z,62.82
2018-11-14T15:19:20.773Z,63.00
2018-11-14T15:24:03.897Z,63.03
2018-11-14T15:28:50.886Z,63.76
2018-11-14T15:33:34.014Z,62.75
2018-11-14T15:38:19.139Z,63.49
2018-11-14T15:43:02.393Z,63.61
2018-11-14T15:47:45.737Z,63.75
2018-11-14T15:52:28.963Z,63.26
2018-11-14T15:57:12.340Z,64.00
2018-11-14T16:01:56.037Z,63.76
2018-11-14T16:06:39.831Z,63.71
2018-11-14T16:11:26.474Z,63.82
2018-11-14T16:16:09.519Z,64.36
2018-11-14T16:20:52.760Z,64.62
2018-11-14T16:25:35.764Z,64.34
2018-11-14T16:30:21.653Z,65.38
2018-11-14T16:35:05.624Z,65.16
2018-11-14T16:39:53.190Z,65.73
2018-11-14T16:44:36.382Z,66.17
2018-11-14T16:49:20.332Z,65.14
2018-11-14T16:54:03.406Z,65.37
2018-11-14T16:58:47.590Z,65.55
2018-11-14T17:08:37.692Z,66.21
2018-11-14T17:13:20.643Z,65.73
2018-11-14T17:23:21.495Z,66.03
2018-11-14T17:28:12.312Z,67.25
2018-11-14T17:32:58.680Z,66.40
2018-11-14T17:37:45.844Z,66.12
2018-11-14T17:42:32.718Z,66.56
2018-11-14T17:47:16.716Z,66.48
2018-11-14T17:52:25.260Z,68.18
2018-11-14T18:02:23.187Z,69.83
2018-11-14T18:07:07.362Z,71.09
2018-11-14T18:11:50.813Z,72.86
2018-11-14T18:16:34.980Z,73.73
2018-11-14T18:21:21.620Z,75.05
2018-11-14T18:26:07.652Z,75.92
2018-11-14T18:30:51.246Z,77.08
2018-11-14T18:35:37.686Z,77.51
2018-11-14T18:40:23.829Z,77.57
2018-11-14T18:45:43.203Z,77.87
2018-11-14T18:50:26.720Z,76.72
2018-11-14T18:55:11.343Z,77.54
2018-11-14T18:59:55.359Z,77.64
2018-11-14T19:05:03.421Z,77.77
2018-11-14T19:09:46.542Z,77.36
2018-11-14T19:14:29.799Z,78.44
2018-11-14T19:19:22.368Z,76.80
2018-11-14T19:24:05.555Z,77.50
2018-11-14T19:28:51.514Z,78.04
2018-11-14T19:33:37.141Z,77.70
2018-11-14T19:38:21.162Z,77.98
2018-11-14T19:43:07.021Z,77.97
2018-11-14T19:47:54.498Z,80.14
2018-11-14T19:52:39.104Z,79.34
2018-11-14T19:57:22.243Z,79.46
2018-11-14T20:02:05.391Z,78.11
2018-11-14T20:06:52.393Z,78.54
2018-11-14T20:11:35.422Z,79.16
2018-11-14T20:16:18.622Z,78.91
2018-11-14T20:21:02.914Z,78.39
2018-11-14T20:25:49.577Z,77.84
2018-11-14T20:30:38.125Z,77.33
2018-11-14T20:35:21.804Z,77.76
2018-11-14T20:40:05.483Z,77.98
2018-11-14T20:44:49.648Z,77.77
2018-11-14T20:49:33.814Z,77.72
2018-11-14T20:54:16.768Z,77.84
2018-11-14T20:59:03.515Z,78.67
2018-11-14T21:03:46.435Z,77.82
2018-11-14T21:08:30.576Z,78.61
2018-11-14T21:13:13.523Z,79.43
2018-11-14T21:17:58.741Z,79.10
2018-11-14T21:22:42.187Z,77.42
2018-11-14T21:27:26.180Z,77.37
2018-11-14T21:32:09.083Z,77.57
2018-11-14T21:36:52.173Z,77.55
2018-11-14T21:41:35.094Z,77.85
2018-11-14T21:46:18.191Z,79.39
2018-11-14T21:51:02.354Z,78.97
2018-11-14T21:55:45.261Z,79.24
2018-11-14T22:00:32.168Z,79.55
2018-11-14T22:05:15.127Z,79.21
2018-11-14T22:10:00.409Z,79.11
2018-11-14T22:14:43.423Z,78.41
2018-11-14T22:19:28.611Z,77.40
2018-11-14T22:24:11.544Z,77.40
2018-11-14T22:28:55.628Z,76.94
2018-11-14T22:33:38.620Z,76.97
2018-11-14T22:38:22.818Z,76.24
2018-11-14T22:43:05.842Z,76.15
2018-11-14T22:47:49.582Z,75.85
2018-11-14T22:52:32.468Z,75.18
2018-11-14T22:57:16.879Z,76.11
2018-11-14T23:01:59.796Z,75.55
2018-11-14T23:06:42.908Z,76.00
2018-11-14T23:11:26.303Z,75.69
2018-11-14T23:16:09.427Z,75.65
2018-11-14T23:20:52.835Z,75.43
2018-11-14T23:25:35.708Z,74.52
2018-11-14T23:30:19.942Z,74.07
2018-11-14T23:35:08.656Z,73.55
2018-11-14T23:39:51.755Z,73.92
2018-11-14T23:44:34.707Z,74.02
2018-11-14T23:49:19.106Z,73.65
2018-11-14T23:54:02.072Z,74.50
2018-11-14T23:58:46.031Z,73.88
